createdAt,value
2019-02-21T00:01:01.666Z,26.30
2019-02-21T00:03:54.705Z,26.30
2019-02-21T00:06:47.290Z,26.20
2019-02-21T00:09:40.010Z,26.20
2019-02-21T00:12:33.243Z,26.10
2019-02-21T00:15:26.123Z,26.10
2019-02-21T00:18:18.761Z,26.10
2019-02-21T00:21:11.300Z,26.10
2019-02-21T00:24:03.807Z,26.10
2019-02-21T00:26:56.044Z,26.10
2019-02-21T00:29:48.501Z,26.10
2019-02-21T00:32:41.084Z,26.00
2019-02-21T00:35:33.759Z,25.90
2019-02-21T00:38:26.371Z,25.90
2019-02-21T00:41:19.063Z,25.90
2019-02-21T00:44:11.620Z,25.90
2019-02-21T00:47:04.500Z,25.90
2019-02-21T00:49:57.282Z,25.90
2019-02-21T00:52:49.969Z,25.90
2019-02-21T00:55:42.624Z,26.00
2019-02-21T00:58:35.151Z,26.00
2019-02-21T01:01:27.865Z,26.00
2019-02-21T01:04:20.206Z,26.00
2019-02-21T01:07:12.866Z,25.90
2019-02-21T01:10:05.494Z,25.90
2019-02-21T01:12:57.893Z,25.90
2019-02-21T01:15:50.206Z,25.80
2019-02-21T01:18:42.804Z,25.80
2019-02-21T01:21:35.213Z,25.80
2019-02-21T01:24:27.326Z,25.80
2019-02-21T01:27:19.760Z,25.80
2019-02-21T01:30:12.573Z,25.80
2019-02-21T01:33:04.801Z,25.80
2019-02-21T01:35:57.502Z,25.80
2019-02-21T01:38:49.875Z,25.80
2019-02-21T01:41:41.925Z,25.70
2019-02-21T01:44:34.584Z,25.80
2019-02-21T01:47:27.173Z,25.80
2019-02-21T01:50:19.319Z,25.80
2019-02-21T01:53:11.831Z,25.70
2019-02-21T01:56:04.184Z,25.80
2019-02-21T01:58:57.061Z,25.80
2019-02-21T02:01:50.406Z,25.90
2019-02-21T02:04:42.682Z,26.00
2019-02-21T02:07:35.160Z,26.10
2019-02-21T02:10:28.040Z,26.10
2019-02-21T02:13:24.491Z,26.00
2019-02-21T02:16:14.360Z,26.00
2019-02-21T02:19:06.824Z,26.00
2019-02-21T02:21:59.482Z,26.00
2019-02-21T02:24:51.880Z,26.00
2019-02-21T02:27:44.254Z,26.10
2019-02-21T02:30:36.588Z,26.10
2019-02-21T02:33:29.150Z,26.10
2019-02-21T02:36:21.620Z,26.10
2019-02-21T02:39:14.243Z,26.10
2019-02-21T02:42:07.155Z,26.10
2019-02-21T02:44:59.763Z,26.10
2019-02-21T02:47:52.557Z,26.10
2019-02-21T02:50:44.963Z,26.20
2019-02-21T02:53:37.647Z,26.10
2019-02-21T02:56:30.875Z,26.20
2019-02-21T02:59:23.378Z,26.20
2019-02-21T03:02:15.998Z,26.20
2019-02-21T03:05:09.056Z,26.20
2019-02-21T03:08:01.481Z,26.20
2019-02-21T03:10:54.143Z,26.20
2019-02-21T03:13:46.839Z,26.30
2019-02-21T03:16:40.754Z,26.30
2019-02-21T03:19:33.128Z,26.30
2019-02-21T03:22:25.657Z,26.30
2019-02-21T03:25:19.586Z,26.30
2019-02-21T03:28:12.273Z,26.30
2019-02-21T03:31:05.186Z,26.30
2019-02-21T03:33:59.527Z,26.30
2019-02-21T03:36:52.268Z,26.30
2019-02-21T03:39:44.981Z,26.30
2019-02-21T03:42:37.925Z,26.30
2019-02-21T03:45:30.204Z,26.40
2019-02-21T03:48:23.005Z,26.40
2019-02-21T03:51:15.691Z,26.30
2019-02-21T03:54:08.949Z,26.40
2019-02-21T03:57:07.264Z,26.40
2019-02-21T04:00:00.414Z,26.40
2019-02-21T04:02:53.770Z,26.40
2019-02-21T04:05:46.531Z,26.40
2019-02-21T04:08:40.054Z,26.40
2019-02-21T04:11:33.024Z,26.40
2019-02-21T04:14:25.776Z,26.40
2019-02-21T04:17:22.367Z,26.50
2019-02-21T04:20:15.040Z,26.40
2019-02-21T04:23:08.046Z,26.50
2019-02-21T04:26:00.780Z,26.50
2019-02-21T04:28:53.117Z,26.50
2019-02-21T04:31:46.134Z,26.50
2019-02-21T04:34:38.918Z,26.50
2019-02-21T04:37:32.997Z,26.50
2019-02-21T04:40:25.648Z,26.50
2019-02-21T04:43:18.599Z,26.60
2019-02-21T04:46:11.579Z,26.70
2019-02-21T04:49:04.107Z,26.70
2019-02-21T04:51:56.987Z,26.70
2019-02-21T04:54:49.829Z,26.70
2019-02-21T04:57:42.378Z,26.70
2019-02-21T05:00:35.048Z,26.70
2019-02-21T05:03:27.899Z,26.70
2019-02-21T05:06:21.417Z,26.70
2019-02-21T05:09:13.599Z,26.70
2019-02-21T05:12:06.227Z,26.70
2019-02-21T05:14:58.976Z,26.70
2019-02-21T05:17:52.341Z,26.80
2019-02-21T05:20:48.650Z,26.70
2019-02-21T05:23:43.939Z,26.80
2019-02-21T05:26:42.659Z,26.80
2019-02-21T05:29:36.186Z,26.80
2019-02-21T05:32:55.402Z,26.80
2019-02-21T05:36:04.724Z,26.80
2019-02-21T05:39:11.146Z,27.10
2019-02-21T05:42:29.974Z,26.90
2019-02-21T05:45:28.366Z,26.90
2019-02-21T05:48:29.180Z,26.90
2019-02-21T05:51:33.147Z,26.90
2019-02-21T05:54:38.013Z,26.90
2019-02-21T05:57:40.367Z,26.90
2019-02-21T06:00:48.584Z,27.00
2019-02-21T06:03:59.144Z,27.00
2019-02-21T06:07:09.637Z,27.00
2019-02-21T06:10:32.881Z,27.00
2019-02-21T06:13:44.617Z,27.10
2019-02-21T06:16:59.436Z,27.10
2019-02-21T06:20:14.126Z,27.10
2019-02-21T06:23:25.085Z,27.10
2019-02-21T06:26:25.380Z,27.10
2019-02-21T06:29:41.541Z,27.10
2019-02-21T06:32:35.027Z,27.10
2019-02-21T06:35:28.088Z,27.10
2019-02-21T06:38:21.655Z,27.20
2019-02-21T06:41:15.999Z,27.20
2019-02-21T06:44:09.925Z,27.20
2019-02-21T06:47:04.245Z,27.20
2019-02-21T06:49:58.766Z,27.20
2019-02-21T06:52:58.636Z,27.20
2019-02-21T06:56:09.229Z,27.20
2019-02-21T06:59:07.385Z,27.30
2019-02-21T07:02:30.519Z,27.30
2019-02-21T07:05:23.288Z,27.30
2019-02-21T07:08:16.854Z,27.30
2019-02-21T07:11:10.827Z,27.30
2019-02-21T07:14:04.747Z,27.30
2019-02-21T07:17:00.007Z,27.40
2019-02-21T07:19:54.208Z,27.40
2019-02-21T07:22:48.199Z,27.40
2019-02-21T07:25:47.526Z,27.40
2019-02-21T07:28:41.760Z,27.40
2019-02-21T07:31:34.531Z,27.50
2019-02-21T07:34:40.953Z,27.50
2019-02-21T07:37:37.147Z,27.50
2019-02-21T07:40:31.098Z,27.50
2019-02-21T07:43:24.904Z,27.50
2019-02-21T07:46:18.769Z,27.50
2019-02-21T07:49:25.886Z,27.60
2019-02-21T07:52:26.190Z,27.50
2019-02-21T07:55:19.564Z,27.60
2019-02-21T07:58:12.744Z,27.60
2019-02-21T08:01:05.559Z,27.70
2019-02-21T08:03:58.313Z,27.70
2019-02-21T08:06:51.932Z,27.70
2019-02-21T08:09:45.953Z,27.70
2019-02-21T08:12:40.565Z,27.70
2019-02-21T08:15:36.438Z,27.70
2019-02-21T08:18:30.323Z,27.70
2019-02-21T08:21:23.671Z,27.70
2019-02-21T08:24:16.266Z,27.70
2019-02-21T08:27:09.776Z,27.70
2019-02-21T08:30:03.202Z,27.80
2019-02-21T08:33:21.277Z,27.80
2019-02-21T08:36:15.650Z,27.70
2019-02-21T08:39:11.498Z,27.80
2019-02-21T08:42:07.186Z,27.80
2019-02-21T08:45:07.080Z,27.80
2019-02-21T08:48:02.339Z,27.80
2019-02-21T08:50:56.295Z,27.90
2019-02-21T08:53:57.979Z,27.90
2019-02-21T08:56:52.850Z,27.90
2019-02-21T08:59:45.679Z,27.90
2019-02-21T09:02:43.624Z,27.90
2019-02-21T09:05:38.043Z,27.90
2019-02-21T09:08:35.170Z,27.90
2019-02-21T09:11:28.197Z,28.00
2019-02-21T09:14:21.802Z,28.00
2019-02-21T09:17:15.574Z,27.90
2019-02-21T09:20:13.370Z,28.00
2019-02-21T09:23:15.734Z,28.00
2019-02-21T09:26:15.805Z,28.00
2019-02-21T09:29:10.504Z,28.00
2019-02-21T09:32:06.963Z,28.00
2019-02-21T09:35:00.876Z,28.10
2019-02-21T09:37:54.663Z,28.00
2019-02-21T09:40:47.861Z,27.90
2019-02-21T09:43:40.604Z,27.90
2019-02-21T09:46:33.348Z,27.80
2019-02-21T09:49:26.207Z,27.80
2019-02-21T09:52:20.009Z,27.80
2019-02-21T09:55:14.705Z,27.70
2019-02-21T09:58:07.284Z,27.80
2019-02-21T10:01:02.013Z,27.70
2019-02-21T10:03:57.391Z,27.70
2019-02-21T10:06:52.126Z,27.70
2019-02-21T10:09:45.162Z,27.70
2019-02-21T10:12:38.143Z,27.70
2019-02-21T10:15:31.596Z,27.70
2019-02-21T10:18:25.568Z,27.70
2019-02-21T10:21:20.389Z,27.70
2019-02-21T10:24:13.304Z,27.70
2019-02-21T10:27:07.920Z,27.70
2019-02-21T10:30:01.560Z,27.70
2019-02-21T10:32:55.623Z,27.70
2019-02-21T10:35:49.180Z,27.80
2019-02-21T10:38:43.686Z,27.80
2019-02-21T10:41:37.123Z,27.80
2019-02-21T10:44:30.246Z,27.80
2019-02-21T10:47:22.831Z,27.80
2019-02-21T10:50:19.222Z,27.80
2019-02-21T10:53:11.949Z,27.80
2019-02-21T10:56:05.178Z,27.80
2019-02-21T10:58:59.987Z,27.80
2019-02-21T11:01:54.724Z,27.80
2019-02-21T11:04:54.733Z,27.90
2019-02-21T11:07:44.846Z,27.80
2019-02-21T11:10:39.207Z,27.90
2019-02-21T11:13:32.204Z,27.90
2019-02-21T11:16:25.036Z,27.90
2019-02-21T11:19:18.787Z,27.90
2019-02-21T11:22:12.639Z,27.90
2019-02-21T11:25:06.687Z,27.90
2019-02-21T11:27:59.482Z,27.90
2019-02-21T11:30:53.634Z,27.90
2019-02-21T11:33:48.182Z,27.80
2019-02-21T11:36:41.546Z,27.90
2019-02-21T11:39:35.851Z,27.90
2019-02-21T11:42:28.768Z,27.90
2019-02-21T11:45:21.374Z,27.90
2019-02-21T11:48:14.137Z,27.90
2019-02-21T11:51:07.566Z,27.90
2019-02-21T11:54:00.439Z,27.90
2019-02-21T11:56:53.361Z,27.90
2019-02-21T11:59:46.906Z,27.90
2019-02-21T12:02:43.044Z,27.90
2019-02-21T12:05:36.457Z,27.90
2019-02-21T12:08:29.330Z,27.90
2019-02-21T12:11:23.498Z,27.90
2019-02-21T12:14:16.109Z,27.90
2019-02-21T12:17:09.010Z,27.90
2019-02-21T12:20:04.536Z,27.90
2019-02-21T12:22:59.272Z,27.90
2019-02-21T12:32:59.345Z,27.90
2019-02-21T12:35:52.810Z,27.30
2019-02-21T12:38:47.051Z,28.00
2019-02-21T12:41:46.719Z,28.00
2019-02-21T12:44:39.002Z,28.00
2019-02-21T12:47:31.477Z,28.00
2019-02-21T12:50:26.158Z,28.00
2019-02-21T12:53:20.075Z,28.00
2019-02-21T12:56:14.795Z,28.00
2019-02-21T12:59:07.878Z,28.00
2019-02-21T13:02:00.794Z,28.00
2019-02-21T13:04:53.221Z,28.00
2019-02-21T13:07:46.331Z,28.00
2019-02-21T13:10:39.102Z,28.00
2019-02-21T13:13:32.660Z,28.00
2019-02-21T13:16:25.335Z,28.00
2019-02-21T13:19:18.067Z,28.00
2019-02-21T13:22:11.594Z,28.00
2019-02-21T13:25:04.538Z,28.00
2019-02-21T13:27:57.443Z,28.00
2019-02-21T13:30:51.204Z,28.00
2019-02-21T13:33:44.946Z,28.00
2019-02-21T13:36:38.254Z,28.00
2019-02-21T13:39:31.322Z,28.00
2019-02-21T13:42:24.090Z,28.10
2019-02-21T13:45:17.977Z,28.00
2019-02-21T13:48:11.209Z,28.00
2019-02-21T13:51:04.235Z,28.00
2019-02-21T13:53:57.469Z,28.00
2019-02-21T13:56:50.687Z,28.00
2019-02-21T13:59:43.712Z,28.00
2019-02-21T14:02:36.404Z,28.00
2019-02-21T14:05:29.119Z,28.00
2019-02-21T14:08:21.663Z,28.00
2019-02-21T14:11:15.345Z,28.00
2019-02-21T14:14:08.513Z,28.00
2019-02-21T14:17:01.516Z,28.00
2019-02-21T14:20:05.771Z,28.00
2019-02-21T14:23:00.778Z,28.00
2019-02-21T14:25:53.680Z,28.00
2019-02-21T14:28:47.399Z,28.00
2019-02-21T14:31:40.395Z,28.00
2019-02-21T14:34:32.999Z,28.00
2019-02-21T14:37:25.548Z,28.00
2019-02-21T14:40:17.990Z,28.00
2019-02-21T14:43:10.073Z,28.00
2019-02-21T14:46:02.695Z,28.00
2019-02-21T14:48:55.070Z,28.00
2019-02-21T14:51:47.544Z,28.00
2019-02-21T14:54:40.242Z,28.00
2019-02-21T14:57:40.433Z,28.00
2019-02-21T15:00:30.873Z,28.00
2019-02-21T15:03:24.203Z,28.00
2019-02-21T15:06:26.766Z,28.10
2019-02-21T15:09:10.385Z,28.10
2019-02-21T15:12:02.638Z,28.10
2019-02-21T15:14:55.203Z,28.10
2019-02-21T15:17:48.257Z,28.10
2019-02-21T15:20:43.504Z,28.10
2019-02-21T15:23:37.186Z,28.10
2019-02-21T15:26:29.604Z,28.10
2019-02-21T15:29:21.928Z,28.00
2019-02-21T15:32:14.515Z,28.10
2019-02-21T15:35:06.884Z,28.10
2019-02-21T15:38:00.584Z,28.10
2019-02-21T15:40:52.877Z,28.10
2019-02-21T15:43:45.757Z,28.10
2019-02-21T15:46:39.025Z,28.10
2019-02-21T15:49:31.769Z,28.10
2019-02-21T15:52:26.373Z,28.10
2019-02-21T15:55:19.175Z,28.10
2019-02-21T15:58:12.042Z,28.10
2019-02-21T16:01:05.073Z,28.10
2019-02-21T16:03:57.866Z,28.10
2019-02-21T16:06:51.773Z,28.10
2019-02-21T16:09:44.343Z,28.10
2019-02-21T16:12:37.078Z,28.10
2019-02-21T16:15:29.514Z,28.10
2019-02-21T16:18:23.236Z,28.10
2019-02-21T16:21:16.937Z,28.10
2019-02-21T16:24:09.861Z,28.10
2019-02-21T16:27:02.773Z,28.10
2019-02-21T16:29:55.422Z,28.10
2019-02-21T16:32:48.056Z,28.10
2019-02-21T16:35:41.351Z,28.10
2019-02-21T16:38:33.685Z,28.10
2019-02-21T16:41:35.772Z,28.10
2019-02-21T16:44:21.813Z,28.10
2019-02-21T16:47:16.325Z,28.10
2019-02-21T16:50:08.755Z,28.10
2019-02-21T16:53:01.887Z,28.10
2019-02-21T16:55:54.173Z,28.10
2019-02-21T16:58:47.772Z,28.10
2019-02-21T17:01:40.142Z,28.10
2019-02-21T17:04:33.115Z,28.10
2019-02-21T17:07:25.939Z,28.10
2019-02-21T17:10:18.974Z,28.10
2019-02-21T17:13:12.357Z,28.10
2019-02-21T17:16:05.111Z,28.10
2019-02-21T17:18:58.333Z,28.10
2019-02-21T17:21:51.403Z,28.10
2019-02-21T17:24:43.840Z,28.00
2019-02-21T17:27:36.868Z,28.10
2019-02-21T17:30:29.299Z,28.10
2019-02-21T17:33:22.224Z,28.10
2019-02-21T17:36:15.112Z,28.10
2019-02-21T17:39:09.294Z,28.10
2019-02-21T17:42:02.631Z,28.10
2019-02-21T17:44:54.773Z,28.10
2019-02-21T17:47:47.512Z,28.10
2019-02-21T17:50:39.676Z,28.10
2019-02-21T17:53:31.816Z,28.10
2019-02-21T17:56:24.025Z,28.10
2019-02-21T17:59:16.458Z,28.10
2019-02-21T18:02:09.002Z,28.10
2019-02-21T18:05:01.262Z,28.10
2019-02-21T18:07:53.344Z,28.10
2019-02-21T18:10:45.756Z,28.10
2019-02-21T18:13:38.514Z,28.00
2019-02-21T18:16:30.700Z,28.00
2019-02-21T18:19:23.084Z,28.00
2019-02-21T18:22:15.437Z,28.00
2019-02-21T18:25:08.928Z,28.00
2019-02-21T18:28:01.433Z,28.00
2019-02-21T18:30:53.738Z,28.00
2019-02-21T18:33:46.024Z,28.00
2019-02-21T18:36:38.300Z,28.00
2019-02-21T18:39:30.682Z,28.00
2019-02-21T18:42:23.145Z,28.00
2019-02-21T18:45:15.532Z,28.00
2019-02-21T18:48:08.231Z,28.00
2019-02-21T18:51:00.836Z,28.00
2019-02-21T18:53:53.286Z,28.00
2019-02-21T18:56:45.571Z,28.00
2019-02-21T18:59:38.630Z,28.00
2019-02-21T19:02:31.411Z,28.00
2019-02-21T19:05:35.031Z,28.00
2019-02-21T19:08:18.142Z,28.00
2019-02-21T19:11:11.093Z,28.00
2019-02-21T19:14:03.687Z,28.00
2019-02-21T19:16:56.457Z,28.00
2019-02-21T19:19:48.946Z,27.90
2019-02-21T19:22:41.622Z,27.90
2019-02-21T19:25:34.231Z,27.90
2019-02-21T19:28:27.149Z,27.90
2019-02-21T19:31:20.419Z,28.00
2019-02-21T19:34:13.096Z,27.90
2019-02-21T19:37:05.423Z,27.90
2019-02-21T19:39:58.381Z,27.90
2019-02-21T19:42:50.700Z,27.90
2019-02-21T19:45:43.561Z,27.90
2019-02-21T19:48:36.085Z,27.90
2019-02-21T19:51:28.762Z,27.90
2019-02-21T19:54:20.892Z,27.90
2019-02-21T19:57:13.404Z,27.90
2019-02-21T20:00:06.826Z,27.90
2019-02-21T20:03:00.564Z,27.90
2019-02-21T20:05:52.968Z,27.90
2019-02-21T20:08:45.714Z,27.90
2019-02-21T20:11:38.383Z,27.90
2019-02-21T20:14:30.654Z,27.80
2019-02-21T20:17:22.921Z,27.80
2019-02-21T20:20:15.646Z,27.80
2019-02-21T20:23:07.866Z,27.90
2019-02-21T20:25:59.919Z,27.90
2019-02-21T20:28:52.096Z,27.80
2019-02-21T20:31:44.177Z,27.80
2019-02-21T20:34:36.633Z,27.80
2019-02-21T20:37:29.219Z,27.80
2019-02-21T20:40:21.992Z,27.80
2019-02-21T20:43:14.173Z,27.80
2019-02-21T20:46:06.318Z,27.80
2019-02-21T20:48:58.535Z,27.80
2019-02-21T20:51:50.783Z,27.80
2019-02-21T20:54:42.929Z,27.80
2019-02-21T20:57:35.223Z,27.80
2019-02-21T21:00:27.634Z,27.80
2019-02-21T21:03:20.173Z,27.80
2019-02-21T21:06:12.560Z,27.80
2019-02-21T21:09:05.461Z,27.70
2019-02-21T21:11:57.655Z,27.70
2019-02-21T21:14:49.974Z,27.70
2019-02-21T21:17:42.211Z,27.70
2019-02-21T21:20:34.253Z,27.70
2019-02-21T21:23:26.533Z,27.70
2019-02-21T21:26:18.919Z,27.70
2019-02-21T21:29:11.595Z,27.70
2019-02-21T21:32:04.037Z,27.70
2019-02-21T21:34:56.553Z,27.70
2019-02-21T21:37:49.205Z,27.70
2019-02-21T21:40:41.807Z,27.60
2019-02-21T21:43:34.409Z,27.60
2019-02-21T21:46:26.534Z,27.60
2019-02-21T21:49:19.068Z,27.60
2019-02-21T21:52:11.517Z,27.60
2019-02-21T21:55:03.914Z,27.70
2019-02-21T21:57:56.229Z,27.70
2019-02-21T22:00:48.305Z,27.70
2019-02-21T22:03:41.008Z,27.70
2019-02-21T22:06:32.934Z,27.70
2019-02-21T22:09:24.989Z,27.70
2019-02-21T22:12:17.021Z,27.70
2019-02-21T22:15:09.426Z,27.60
2019-02-21T22:18:01.808Z,27.60
2019-02-21T22:20:54.425Z,27.60
2019-02-21T22:23:46.746Z,27.60
2019-02-21T22:26:39.230Z,27.60
2019-02-21T22:29:31.559Z,27.60
2019-02-21T22:32:24.168Z,27.60
2019-02-21T22:35:16.638Z,27.60
2019-02-21T22:38:09.092Z,27.60
2019-02-21T22:41:01.018Z,27.60
2019-02-21T22:43:53.305Z,27.60
2019-02-21T22:46:45.655Z,27.60
2019-02-21T22:49:38.248Z,27.50
2019-02-21T22:52:31.541Z,27.50
2019-02-21T22:55:23.903Z,27.50
2019-02-21T22:58:16.256Z,27.50
2019-02-21T23:01:38.153Z,27.50
2019-02-21T23:04:33.023Z,27.60
2019-02-21T23:07:30.296Z,27.60
2019-02-21T23:10:23.055Z,27.60
2019-02-21T23:13:15.971Z,27.50
2019-02-21T23:16:09.233Z,27.50
2019-02-21T23:19:01.360Z,27.40
2019-02-21T23:21:53.674Z,27.50
2019-02-21T23:24:45.926Z,27.40
2019-02-21T23:27:30.652Z,27.40
2019-02-21T23:30:22.993Z,27.40
2019-02-21T23:33:15.053Z,27.40
2019-02-21T23:36:07.416Z,27.40
2019-02-21T23:38:59.706Z,27.40
2019-02-21T23:41:52.067Z,27.40
2019-02-21T23:44:44.778Z,27.40
2019-02-21T23:47:37.259Z,27.40
2019-02-21T23:50:29.885Z,27.40
2019-02-21T23:53:22.029Z,27.40
2019-02-21T23:56:14.284Z,27.40
2019-02-21T23:59:06.752Z,27.50
